Estevan Airport
CYEN : now visible

Airfield :











YOU CAN JOIN US ON...

 
LOGIN :

Register | Disclaimer

   EN    FR    IT 

 









Legend :    VFR   Marginal VFR   IFR   Intensive IFR   Very Intensive IFR
Visi :
Ceiling :
>= 8 km
>= 3000ft
5 to 8 km
1000 to 3000 ft
1500m to 5 km
500 to 1000 ft
800 to 1500m
200 to 500 ft
< 800m
< 200 ft
Symbols :   Thunderstorms  Fog  Heavy snow  Heavy precipitations  Wind > 20 kt






- Airport Elevation : 1905 ft
- IATA code : YEN


CYEN - Estevan

CURRENT METAR :
  • 140917Z AUTO 36005KT 9SM BKN016 OVC029 M05/M07 A3038 RMK SLP328

EXPIRED METARs :
  • 140913Z AUTO 01005KT 9SM SCT016 BKN024 OVC029 M05/M07 A3038 RMK SLP328
  • 140800Z AUTO 36004KT 9SM OVC013 M05/M07 A3037 RMK SLP324
  • 140731Z AUTO 01003KT 9SM SCT014 BKN019 OVC031 M05/M07 A3037 RMK SLP323
  • 140715Z AUTO 02004KT 6SM -SN BKN019 BKN023 OVC031 M05/M07 A3037 RMK SLP322
  • 140700Z AUTO 36004KT 5SM -SN FEW012 BKN019 OVC031 M05/M07 A3037 RMK SLP322

Expired Forecast.
CZWG FIR / North America



MET'MAP, your aeronautical weather chart ! - Copyright ORBIFLY December 2007 - Disclaimer

ORBIFLY MET'MAP TEAM :

Programming & Development : Alexandra Zaïnal
Concept & original design : Baudouin d'Aumeries
Assistance for programming : Marc-Olivier Méhu
Technical & hardware support : Manuel Goepfert

Contact : metmap@orbifly.com




SOURCES & CREDITS :

   NOAA       Earth
Advisory